createdAt,value
2023-05-19T00:01:04.271Z,2.54
2023-05-19T00:02:12.645Z,2.49
2023-05-19T00:03:22.863Z,2.49
2023-05-19T00:04:31.357Z,2.60
2023-05-19T00:05:47.203Z,2.52
2023-05-19T00:06:55.179Z,2.45
2023-05-19T00:08:02.906Z,2.44
2023-05-19T00:09:11.934Z,2.32
2023-05-19T00:10:20.098Z,2.54
2023-05-19T00:11:28.902Z,2.48
2023-05-19T00:12:36.113Z,2.49
2023-05-19T00:13:42.904Z,2.57
2023-05-19T00:14:49.864Z,2.50
2023-05-19T00:15:57.400Z,2.45
2023-05-19T00:17:05.740Z,2.40
2023-05-19T00:18:17.971Z,2.43
2023-05-19T00:19:26.626Z,2.65
2023-05-19T00:20:34.172Z,2.39
2023-05-19T00:21:41.782Z,2.19
2023-05-19T00:22:48.649Z,2.42
2023-05-19T00:23:55.886Z,2.35
2023-05-19T00:25:02.500Z,2.35
2023-05-19T00:26:10.216Z,2.33
2023-05-19T00:27:19.128Z,2.54
2023-05-19T00:28:26.592Z,2.63
2023-05-19T00:29:33.742Z,2.44
2023-05-19T00:30:40.609Z,2.44
2023-05-19T00:31:48.836Z,2.51
2023-05-19T00:32:56.890Z,2.48
2023-05-19T00:34:04.451Z,2.62
2023-05-19T00:35:12.137Z,2.37
2023-05-19T00:36:19.210Z,2.35
2023-05-19T00:37:26.316Z,2.33
2023-05-19T00:38:34.667Z,2.34
2023-05-19T00:39:41.271Z,2.42
2023-05-19T00:40:48.343Z,2.75
2023-05-19T00:41:56.244Z,2.52
2023-05-19T00:43:03.281Z,2.69
2023-05-19T00:44:10.734Z,2.45
2023-05-19T00:45:17.818Z,2.50
2023-05-19T00:46:25.066Z,2.39
2023-05-19T00:47:32.497Z,2.51
2023-05-19T00:48:39.763Z,2.56
2023-05-19T00:49:47.724Z,2.46
2023-05-19T00:50:56.631Z,2.32
2023-05-19T00:52:04.870Z,2.61
2023-05-19T00:53:12.338Z,2.44
2023-05-19T00:54:20.494Z,2.30
2023-05-19T00:55:30.260Z,2.42
2023-05-19T00:56:37.818Z,2.36
2023-05-19T00:57:45.916Z,2.47
2023-05-19T00:58:54.203Z,2.56
2023-05-19T01:00:02.897Z,2.54
2023-05-19T01:01:10.919Z,2.39
2023-05-19T01:02:19.857Z,2.39
2023-05-19T01:03:27.681Z,2.55
2023-05-19T01:04:36.863Z,2.43
2023-05-19T01:05:45.883Z,2.38
2023-05-19T01:06:57.921Z,2.50
2023-05-19T01:08:05.482Z,2.49
2023-05-19T01:09:13.569Z,2.42
2023-05-19T01:10:22.692Z,2.36
2023-05-19T01:11:31.176Z,2.49
2023-05-19T01:12:38.916Z,2.47
2023-05-19T01:13:46.116Z,2.55
2023-05-19T01:14:52.824Z,2.46
2023-05-19T01:16:31.716Z,2.36
2023-05-19T01:17:48.132Z,2.57
2023-05-19T01:19:03.897Z,2.45
2023-05-19T01:20:30.997Z,2.61
2023-05-19T01:22:18.824Z,2.39
2023-05-19T01:23:51.078Z,2.46
2023-05-19T01:25:23.284Z,2.60
2023-05-19T01:27:04.934Z,2.51
2023-05-19T01:28:41.082Z,2.46
2023-05-19T01:30:17.735Z,2.42
2023-05-19T01:31:25.363Z,2.27
2023-05-19T01:32:32.887Z,2.46
2023-05-19T01:33:43.286Z,2.52
2023-05-19T01:34:51.150Z,2.28
2023-05-19T01:35:58.438Z,2.53
2023-05-19T01:37:06.746Z,2.33
2023-05-19T01:38:14.912Z,2.46
2023-05-19T01:39:23.199Z,2.43
2023-05-19T01:40:31.344Z,2.49
2023-05-19T01:41:38.790Z,2.38
2023-05-19T01:42:48.614Z,2.26
2023-05-19T01:43:57.171Z,2.32
2023-05-19T01:45:05.750Z,2.27
2023-05-19T01:46:13.028Z,2.16
2023-05-19T01:47:20.688Z,2.47
2023-05-19T01:48:28.772Z,2.46
2023-05-19T01:49:38.778Z,2.30
2023-05-19T01:50:46.748Z,2.18
2023-05-19T01:51:55.633Z,2.18
2023-05-19T01:53:03.088Z,2.17
2023-05-19T01:54:10.275Z,2.43
2023-05-19T01:55:19.354Z,2.42
2023-05-19T01:56:40.933Z,2.33
2023-05-19T01:58:16.758Z,2.31
2023-05-19T01:59:59.378Z,2.37
2023-05-19T02:01:31.962Z,2.38
2023-05-19T02:03:13.323Z,2.47
2023-05-19T02:04:41.271Z,2.49
2023-05-19T02:06:14.478Z,2.31
2023-05-19T02:07:33.786Z,2.40
2023-05-19T02:08:52.853Z,2.35
2023-05-19T02:10:12.907Z,2.39
2023-05-19T02:11:28.612Z,2.42
2023-05-19T02:12:37.774Z,2.42
2023-05-19T02:13:45.689Z,2.30
2023-05-19T02:15:19.395Z,2.23
2023-05-19T02:16:31.397Z,2.16
2023-05-19T02:17:42.644Z,2.27
2023-05-19T02:18:50.241Z,2.49
2023-05-19T02:19:58.131Z,2.34
2023-05-19T02:21:05.954Z,2.31
2023-05-19T02:22:13.955Z,2.45
2023-05-19T02:23:22.319Z,2.16
2023-05-19T02:24:30.414Z,2.29
2023-05-19T02:25:40.067Z,2.30
2023-05-19T02:26:47.972Z,2.27
2023-05-19T02:27:55.224Z,2.36
2023-05-19T02:29:03.899Z,2.44
2023-05-19T02:30:11.550Z,2.29
2023-05-19T02:31:19.763Z,2.37
2023-05-19T02:32:29.113Z,2.32
2023-05-19T02:33:38.094Z,2.38
2023-05-19T02:34:46.822Z,2.32
2023-05-19T02:35:55.309Z,2.22
2023-05-19T02:37:05.052Z,2.39
2023-05-19T02:38:12.628Z,2.24
2023-05-19T02:39:21.116Z,2.39
2023-05-19T02:40:28.476Z,2.41
2023-05-19T02:41:36.370Z,2.28
2023-05-19T02:42:43.518Z,2.33
2023-05-19T02:43:52.235Z,2.41
2023-05-19T02:45:01.531Z,2.32
2023-05-19T02:46:10.758Z,2.15
2023-05-19T02:47:19.018Z,2.31
2023-05-19T02:48:26.394Z,2.40
2023-05-19T02:49:37.111Z,2.17
2023-05-19T02:50:44.332Z,2.41
2023-05-19T02:51:51.785Z,2.30
2023-05-19T02:52:58.723Z,2.17
2023-05-19T02:54:06.459Z,2.24
2023-05-19T02:55:19.134Z,2.09
2023-05-19T02:56:27.817Z,2.16
2023-05-19T02:57:37.115Z,2.32
2023-05-19T02:58:48.270Z,2.29
2023-05-19T02:59:56.982Z,2.32
2023-05-19T03:01:04.486Z,2.22
2023-05-19T03:02:13.236Z,2.43
2023-05-19T03:03:21.203Z,2.40
2023-05-19T03:04:30.208Z,2.30
2023-05-19T03:05:38.252Z,2.14
2023-05-19T03:06:47.912Z,2.33
2023-05-19T03:07:54.781Z,2.54
2023-05-19T03:09:02.297Z,2.42
2023-05-19T03:10:10.418Z,2.38
2023-05-19T03:11:19.093Z,2.44
2023-05-19T03:12:26.486Z,2.26
2023-05-19T03:13:34.592Z,2.25
2023-05-19T03:14:41.458Z,2.42
2023-05-19T03:15:49.651Z,2.22
2023-05-19T03:16:58.833Z,2.27
2023-05-19T03:18:07.159Z,2.13
2023-05-19T03:19:15.087Z,2.34
2023-05-19T03:20:22.633Z,2.07
2023-05-19T03:21:31.690Z,2.14
2023-05-19T03:22:40.332Z,2.18
2023-05-19T03:23:48.403Z,2.25
2023-05-19T03:24:56.491Z,2.28
2023-05-19T03:26:05.295Z,2.37
2023-05-19T03:27:13.927Z,2.29
2023-05-19T03:28:21.312Z,2.12
2023-05-19T03:29:29.848Z,2.10
2023-05-19T03:30:37.971Z,2.15
2023-05-19T03:31:53.228Z,2.29
2023-05-19T03:33:03.228Z,2.35
2023-05-19T03:34:13.777Z,2.28
2023-05-19T03:35:21.261Z,2.15
2023-05-19T03:36:33.386Z,2.14
2023-05-19T03:37:40.367Z,2.26
2023-05-19T03:38:48.169Z,2.26
2023-05-19T03:39:55.710Z,2.18
2023-05-19T03:41:06.392Z,2.46
2023-05-19T03:42:13.439Z,2.33
2023-05-19T03:43:20.819Z,2.26
2023-05-19T03:44:33.812Z,2.33
2023-05-19T03:45:40.464Z,2.44
2023-05-19T03:47:06.368Z,2.30
2023-05-19T03:48:33.795Z,2.08
2023-05-19T03:50:01.621Z,2.10
2023-05-19T03:51:30.219Z,2.19
2023-05-19T03:52:47.578Z,2.14
2023-05-19T03:54:09.316Z,2.37
2023-05-19T03:55:18.145Z,2.30
2023-05-19T03:56:29.144Z,2.43
2023-05-19T03:57:36.962Z,2.25
2023-05-19T03:58:45.771Z,2.04
2023-05-19T03:59:52.695Z,2.26
2023-05-19T04:01:01.526Z,2.35
2023-05-19T04:02:09.408Z,2.40
2023-05-19T04:03:17.533Z,2.09
2023-05-19T04:04:25.981Z,2.03
2023-05-19T04:05:34.757Z,2.16
2023-05-19T04:06:42.567Z,1.95
2023-05-19T04:07:50.510Z,1.78
2023-05-19T04:08:58.690Z,1.76
2023-05-19T04:10:07.392Z,1.63
2023-05-19T04:11:14.928Z,1.75
2023-05-19T04:12:23.296Z,1.83
2023-05-19T04:13:36.418Z,1.78
2023-05-19T04:14:43.496Z,1.77
2023-05-19T04:15:52.356Z,1.51
2023-05-19T04:17:00.165Z,1.67
2023-05-19T04:18:07.695Z,1.42
2023-05-19T04:19:16.086Z,1.47
2023-05-19T04:20:23.666Z,1.34
2023-05-19T04:21:30.687Z,1.28
2023-05-19T04:22:37.407Z,1.19
2023-05-19T04:23:45.235Z,1.18
2023-05-19T04:24:54.751Z,1.15
2023-05-19T04:26:04.439Z,1.20
2023-05-19T04:27:14.334Z,1.00
2023-05-19T04:28:23.196Z,1.01
2023-05-19T04:29:32.118Z,1.25
2023-05-19T04:30:40.933Z,1.02
2023-05-19T04:31:48.324Z,0.99
2023-05-19T04:32:56.065Z,1.06
2023-05-19T04:34:04.068Z,0.82
2023-05-19T04:35:13.244Z,0.85
2023-05-19T04:36:22.762Z,0.83
2023-05-19T04:37:33.381Z,0.78
2023-05-19T04:38:44.878Z,0.71
2023-05-19T04:39:53.708Z,0.70
2023-05-19T04:41:04.236Z,0.63
2023-05-19T04:42:13.407Z,0.59
2023-05-19T04:43:22.329Z,0.59
2023-05-19T04:44:31.955Z,0.67
2023-05-19T04:45:39.405Z,0.60
2023-05-19T04:46:48.271Z,0.59
2023-05-19T04:48:00.312Z,0.66
2023-05-19T04:49:09.076Z,0.39
2023-05-19T04:50:16.247Z,0.36
2023-05-19T04:51:30.592Z,0.58
2023-05-19T04:52:39.340Z,0.44
2023-05-19T04:53:46.831Z,0.20
2023-05-19T04:54:54.186Z,0.23
2023-05-19T04:56:04.851Z,0.08
2023-05-19T04:57:12.961Z,0.32
2023-05-19T04:58:22.360Z,0.26
2023-05-19T04:59:31.296Z,0.35
2023-05-19T05:00:39.646Z,0.13
2023-05-19T05:01:47.183Z,0.08
2023-05-19T05:02:59.795Z,0.22
2023-05-19T05:04:09.726Z,0.25
2023-05-19T05:05:18.683Z,0.20
2023-05-19T05:06:27.794Z,0.12
2023-05-19T05:07:36.326Z,0.17
2023-05-19T05:08:44.432Z,0.09
2023-05-19T05:09:52.952Z,0.22
2023-05-19T05:11:01.093Z,0.16
2023-05-19T05:12:09.610Z,0.01
2023-05-19T05:13:18.668Z,0.04
2023-05-19T05:14:26.524Z,0.08
2023-05-19T05:15:34.340Z,0.08
2023-05-19T05:16:44.508Z,0.06
2023-05-19T05:17:56.300Z,0.05
2023-05-19T05:19:05.290Z,0.09
2023-05-19T05:20:14.020Z,0.05
2023-05-19T05:21:22.496Z,0.05
2023-05-19T05:22:31.318Z,0.05
2023-05-19T05:23:39.879Z,0.00
2023-05-19T05:24:48.591Z,0.00
2023-05-19T05:25:56.757Z,0.01
2023-05-19T05:27:05.518Z,0.01
2023-05-19T05:28:13.171Z,0.01
2023-05-19T05:29:23.461Z,0.00
2023-05-19T05:30:31.300Z,0.00
2023-05-19T05:31:38.934Z,0.00
2023-05-19T05:32:46.741Z,0.00
2023-05-19T05:34:08.612Z,0.00
2023-05-19T05:35:19.608Z,0.00
2023-05-19T05:36:30.674Z,0.00
2023-05-19T05:37:40.827Z,0.00
2023-05-19T05:38:47.941Z,0.00
2023-05-19T05:39:58.106Z,0.00
2023-05-19T05:41:06.863Z,0.00
2023-05-19T05:42:15.717Z,0.00
2023-05-19T05:43:24.787Z,0.00
2023-05-19T05:44:37.421Z,0.00
2023-05-19T05:45:44.662Z,0.00
2023-05-19T05:46:52.911Z,0.00
2023-05-19T05:48:00.471Z,0.00
2023-05-19T05:49:07.825Z,0.00
2023-05-19T05:50:16.536Z,0.00
2023-05-19T05:51:25.459Z,0.00
2023-05-19T05:52:33.888Z,0.00
2023-05-19T05:53:47.172Z,0.00
2023-05-19T05:54:55.332Z,0.00
2023-05-19T05:56:03.505Z,0.00
2023-05-19T05:57:18.475Z,0.00
2023-05-19T05:58:27.225Z,0.00
2023-05-19T05:59:35.592Z,0.00
2023-05-19T06:00:45.475Z,0.00
2023-05-19T06:01:53.810Z,0.00
2023-05-19T06:03:01.508Z,0.00
2023-05-19T06:04:09.567Z,0.00
2023-05-19T06:05:17.619Z,0.00
2023-05-19T06:06:26.530Z,0.00
2023-05-19T06:07:36.612Z,0.00
2023-05-19T06:08:44.136Z,0.00
2023-05-19T06:09:52.734Z,0.00
2023-05-19T06:10:59.972Z,0.00
2023-05-19T06:12:08.748Z,0.00
2023-05-19T06:13:26.160Z,0.00
2023-05-19T06:14:34.021Z,0.00
2023-05-19T06:15:58.044Z,0.00
2023-05-19T06:17:12.804Z,0.00
2023-05-19T06:18:20.601Z,0.00
2023-05-19T06:19:28.562Z,0.00
2023-05-19T06:20:37.227Z,0.00
2023-05-19T06:21:45.058Z,0.00
2023-05-19T06:22:52.975Z,0.00
2023-05-19T06:24:01.892Z,0.00
2023-05-19T06:25:11.124Z,0.00
2023-05-19T06:26:19.296Z,0.00
2023-05-19T06:27:27.151Z,0.00
2023-05-19T06:28:36.290Z,0.00
2023-05-19T06:29:43.302Z,0.00
2023-05-19T06:30:51.011Z,0.00
2023-05-19T06:32:09.066Z,0.00
2023-05-19T06:33:15.992Z,0.00
2023-05-19T06:34:27.022Z,0.00
2023-05-19T06:35:35.459Z,0.00
2023-05-19T06:36:43.308Z,0.00
2023-05-19T06:37:50.479Z,0.00
2023-05-19T06:38:57.736Z,0.00
2023-05-19T06:40:07.884Z,0.00
2023-05-19T06:41:17.215Z,0.00
2023-05-19T06:42:27.175Z,0.00
2023-05-19T06:43:38.332Z,0.00
2023-05-19T06:44:45.389Z,0.00
2023-05-19T06:45:52.471Z,0.00
2023-05-19T06:46:59.436Z,0.00
2023-05-19T06:48:07.104Z,0.00
2023-05-19T06:49:14.258Z,0.00
2023-05-19T06:50:22.039Z,0.00
2023-05-19T06:51:28.814Z,0.00
2023-05-19T06:52:36.193Z,0.00
2023-05-19T06:53:42.918Z,0.00
2023-05-19T06:54:52.757Z,0.00
2023-05-19T06:56:00.672Z,0.00
2023-05-19T06:57:14.263Z,0.00
2023-05-19T06:58:21.278Z,0.00
2023-05-19T06:59:28.462Z,0.00
2023-05-19T07:00:36.263Z,0.00
2023-05-19T07:01:45.560Z,0.00
2023-05-19T07:02:53.012Z,0.00
2023-05-19T07:04:01.373Z,0.00
2023-05-19T07:05:10.482Z,0.00
2023-05-19T07:06:17.691Z,0.00
2023-05-19T07:07:25.060Z,0.00
2023-05-19T07:08:32.905Z,0.00
2023-05-19T07:09:41.399Z,0.00
2023-05-19T07:10:48.523Z,0.00
2023-05-19T07:11:56.483Z,0.00
2023-05-19T07:13:04.518Z,0.00
2023-05-19T07:14:13.689Z,0.00
2023-05-19T07:15:20.784Z,0.00
2023-05-19T07:16:32.253Z,0.00
2023-05-19T07:17:39.147Z,0.00
2023-05-19T07:18:46.484Z,0.00
2023-05-19T07:19:53.610Z,0.00
2023-05-19T07:21:00.927Z,0.00
2023-05-19T07:22:07.992Z,0.00
2023-05-19T07:23:17.218Z,0.00
2023-05-19T07:24:26.497Z,0.00
2023-05-19T07:25:34.714Z,0.00
2023-05-19T07:26:42.312Z,0.00
2023-05-19T07:27:49.413Z,0.00
2023-05-19T07:28:56.503Z,0.00
2023-05-19T07:30:03.594Z,0.00
2023-05-19T07:31:11.126Z,0.00
2023-05-19T07:32:18.339Z,0.00
2023-05-19T07:33:25.745Z,0.00
2023-05-19T07:34:32.944Z,0.00
2023-05-19T07:35:39.773Z,0.00
2023-05-19T07:36:46.564Z,0.00
2023-05-19T07:37:54.601Z,0.00
2023-05-19T07:39:01.759Z,0.00
2023-05-19T07:40:14.085Z,0.00
2023-05-19T07:41:20.785Z,0.00
2023-05-19T07:42:28.588Z,0.00
2023-05-19T07:43:35.459Z,0.00
2023-05-19T07:44:43.066Z,0.00
2023-05-19T07:45:54.845Z,0.00
2023-05-19T07:47:02.077Z,0.00
2023-05-19T07:48:09.578Z,0.00
2023-05-19T07:49:17.067Z,0.00
2023-05-19T07:50:24.085Z,0.00
2023-05-19T07:51:33.062Z,0.00
2023-05-19T07:52:39.942Z,0.00
2023-05-19T07:53:49.449Z,0.00
2023-05-19T07:54:56.394Z,0.00
2023-05-19T07:56:03.197Z,0.00
2023-05-19T07:57:10.752Z,0.00
2023-05-19T07:58:17.727Z,0.00
2023-05-19T07:59:25.515Z,0.00
2023-05-19T08:00:32.470Z,0.00
2023-05-19T08:01:40.072Z,0.00
2023-05-19T08:02:47.483Z,0.00
2023-05-19T08:03:54.745Z,0.00
2023-05-19T08:05:01.925Z,0.00
2023-05-19T08:06:09.254Z,0.00
2023-05-19T08:07:16.113Z,0.00
2023-05-19T08:08:23.436Z,0.00
2023-05-19T08:09:31.143Z,0.00
2023-05-19T08:10:38.135Z,0.00
2023-05-19T08:11:46.408Z,0.00
2023-05-19T08:12:54.955Z,0.00
2023-05-19T08:14:03.494Z,0.00
2023-05-19T08:15:13.478Z,0.00
2023-05-19T08:16:21.552Z,0.00
2023-05-19T08:17:30.117Z,0.00
2023-05-19T08:18:38.170Z,0.00
2023-05-19T08:19:45.587Z,0.00
2023-05-19T08:20:53.988Z,0.00
2023-05-19T08:22:02.372Z,0.00
2023-05-19T08:23:10.137Z,0.00
2023-05-19T08:24:18.531Z,0.00
2023-05-19T08:25:26.426Z,0.00
2023-05-19T08:26:36.957Z,0.00
2023-05-19T08:27:45.312Z,0.00
2023-05-19T08:28:52.354Z,0.00
2023-05-19T08:30:00.603Z,0.00
2023-05-19T08:31:08.805Z,0.00
2023-05-19T08:32:16.764Z,0.00
2023-05-19T08:33:24.836Z,0.00
2023-05-19T08:34:32.576Z,0.00
2023-05-19T08:35:40.458Z,0.00
2023-05-19T08:36:49.479Z,0.00
2023-05-19T08:37:57.415Z,0.00
2023-05-19T08:39:05.329Z,0.00
2023-05-19T08:40:17.520Z,0.00
2023-05-19T08:41:25.787Z,0.00
2023-05-19T08:42:34.609Z,0.00
2023-05-19T08:43:41.287Z,0.00
2023-05-19T08:44:48.398Z,0.00
2023-05-19T08:45:55.635Z,0.00
2023-05-19T08:47:05.386Z,0.00
2023-05-19T08:48:13.553Z,0.00
2023-05-19T08:49:25.635Z,0.00
2023-05-19T08:50:35.322Z,0.00
2023-05-19T08:52:18.186Z,0.00
2023-05-19T08:53:34.060Z,0.00
2023-05-19T08:55:09.767Z,0.00
2023-05-19T08:56:19.854Z,0.00
2023-05-19T08:57:27.371Z,0.00
2023-05-19T08:58:35.546Z,0.00
2023-05-19T08:59:43.344Z,0.00
2023-05-19T09:00:51.285Z,0.00
2023-05-19T09:01:59.422Z,0.00
2023-05-19T09:04:18.505Z,0.00
2023-05-19T09:05:25.781Z,0.00
2023-05-19T09:06:35.935Z,0.00
2023-05-19T09:07:44.437Z,0.00
2023-05-19T09:08:52.243Z,0.00
2023-05-19T09:09:59.244Z,0.00
2023-05-19T09:11:06.913Z,0.00
2023-05-19T09:12:14.237Z,0.00
2023-05-19T09:13:20.857Z,0.00
2023-05-19T09:14:32.271Z,0.00
2023-05-19T09:15:39.855Z,0.00
2023-05-19T09:16:52.290Z,0.00
2023-05-19T09:18:13.478Z,0.00
2023-05-19T09:19:23.170Z,0.00
2023-05-19T09:20:33.076Z,0.00
2023-05-19T09:21:39.845Z,0.00
2023-05-19T09:22:48.738Z,0.00
2023-05-19T09:23:57.472Z,0.00
2023-05-19T09:25:06.268Z,0.00
2023-05-19T09:26:14.290Z,0.00
2023-05-19T09:27:24.908Z,0.00
2023-05-19T09:28:34.277Z,0.00
2023-05-19T09:29:42.182Z,0.00
2023-05-19T09:30:50.447Z,0.00
2023-05-19T09:32:01.970Z,0.00
2023-05-19T09:33:12.145Z,0.00
2023-05-19T09:34:20.198Z,0.00
2023-05-19T09:35:27.728Z,0.00
2023-05-19T09:36:35.704Z,0.00
2023-05-19T09:37:43.086Z,0.00
2023-05-19T09:38:50.744Z,0.00
2023-05-19T09:39:59.460Z,0.00
2023-05-19T09:41:08.191Z,0.00
2023-05-19T09:42:15.094Z,0.00
2023-05-19T09:43:23.881Z,0.00
2023-05-19T09:44:32.399Z,0.00
2023-05-19T09:45:40.282Z,0.00
2023-05-19T09:46:50.571Z,0.00
2023-05-19T09:47:58.771Z,0.00
2023-05-19T09:49:11.735Z,0.00
2023-05-19T09:50:18.758Z,0.00
2023-05-19T09:51:25.671Z,0.00
2023-05-19T09:52:32.960Z,0.00
2023-05-19T09:53:40.273Z,0.00
2023-05-19T09:54:49.368Z,0.00
2023-05-19T09:56:00.311Z,0.00
2023-05-19T09:57:09.060Z,0.00
2023-05-19T09:58:20.360Z,0.00
2023-05-19T09:59:31.530Z,0.00
2023-05-19T10:00:40.407Z,0.00
2023-05-19T10:01:47.882Z,0.00
2023-05-19T10:02:54.911Z,0.00
2023-05-19T10:04:03.705Z,0.00
2023-05-19T10:05:22.116Z,0.00
2023-05-19T10:06:30.934Z,0.00
2023-05-19T10:07:39.062Z,0.00
2023-05-19T10:08:47.539Z,0.00
2023-05-19T10:09:56.598Z,0.00
2023-05-19T10:11:05.139Z,0.00
2023-05-19T10:12:13.624Z,0.00
2023-05-19T10:13:21.797Z,0.00
2023-05-19T10:14:30.841Z,0.00
2023-05-19T10:15:49.957Z,0.00
2023-05-19T10:17:04.925Z,0.00
2023-05-19T10:18:13.057Z,0.00
2023-05-19T10:19:24.712Z,0.00
2023-05-19T10:20:32.797Z,0.00
2023-05-19T10:21:39.803Z,0.00
2023-05-19T10:22:47.602Z,0.00
2023-05-19T10:23:54.460Z,0.00
2023-05-19T10:25:02.057Z,0.00
2023-05-19T10:26:09.559Z,0.00
2023-05-19T10:27:16.919Z,0.00
2023-05-19T10:28:26.968Z,0.00
2023-05-19T10:29:37.921Z,0.00
2023-05-19T10:30:49.256Z,0.00
2023-05-19T10:31:57.194Z,0.00
2023-05-19T10:33:06.108Z,0.00
2023-05-19T10:34:45.469Z,0.00
2023-05-19T10:36:27.242Z,0.00
2023-05-19T10:38:06.370Z,0.00
2023-05-19T10:39:37.933Z,0.00
2023-05-19T10:41:21.137Z,0.00
2023-05-19T10:42:41.678Z,0.00
2023-05-19T10:44:15.743Z,0.00
2023-05-19T10:45:24.439Z,0.00
2023-05-19T10:46:32.353Z,0.00
2023-05-19T10:47:40.436Z,0.00
2023-05-19T10:48:49.384Z,0.00
2023-05-19T10:49:57.657Z,0.00
2023-05-19T10:51:06.424Z,0.00
2023-05-19T10:52:25.287Z,0.00
2023-05-19T10:53:39.142Z,0.00
2023-05-19T10:54:50.617Z,0.00
2023-05-19T10:55:57.921Z,0.00
2023-05-19T10:57:06.787Z,0.00
2023-05-19T10:58:15.599Z,0.00
2023-05-19T10:59:33.684Z,0.00
2023-05-19T11:00:40.895Z,0.00
2023-05-19T11:01:48.825Z,0.00
2023-05-19T11:02:59.693Z,0.00
2023-05-19T11:04:08.645Z,0.00
2023-05-19T11:05:21.834Z,0.00
2023-05-19T11:06:33.639Z,0.00
2023-05-19T11:07:45.379Z,0.00
2023-05-19T11:09:03.768Z,0.00
2023-05-19T11:10:11.992Z,0.00
2023-05-19T11:11:20.618Z,0.00
2023-05-19T11:12:28.202Z,0.00
2023-05-19T11:13:36.699Z,0.00
2023-05-19T11:14:44.307Z,0.00
2023-05-19T11:15:52.481Z,0.00
2023-05-19T11:17:01.090Z,0.00
2023-05-19T11:18:10.447Z,0.00
2023-05-19T11:19:29.963Z,0.00
2023-05-19T11:20:38.619Z,0.00
2023-05-19T11:21:54.360Z,0.00
2023-05-19T11:23:12.840Z,0.00
2023-05-19T11:24:41.617Z,0.00
2023-05-19T11:25:57.901Z,0.00
2023-05-19T11:27:34.893Z,0.00
2023-05-19T11:28:42.328Z,0.00
2023-05-19T11:29:51.195Z,0.00
2023-05-19T11:31:00.328Z,0.00
2023-05-19T11:32:08.056Z,0.00
2023-05-19T11:33:16.364Z,0.00
2023-05-19T11:34:27.450Z,0.00
2023-05-19T11:35:36.515Z,0.00
2023-05-19T11:36:44.864Z,0.00
2023-05-19T11:37:54.456Z,0.00
2023-05-19T11:39:03.270Z,0.00
2023-05-19T11:40:11.387Z,0.00
2023-05-19T11:41:19.528Z,0.00
2023-05-19T11:42:29.126Z,0.00
2023-05-19T11:43:37.422Z,0.00
2023-05-19T11:44:49.791Z,0.00
2023-05-19T11:46:00.571Z,0.00
2023-05-19T11:47:08.163Z,0.00
2023-05-19T11:48:17.578Z,0.00
2023-05-19T11:49:24.866Z,0.00
2023-05-19T11:50:36.520Z,0.00
2023-05-19T11:51:51.690Z,0.00
2023-05-19T11:52:59.536Z,0.00
2023-05-19T11:54:08.667Z,0.00
2023-05-19T11:55:23.543Z,0.00
2023-05-19T11:56:37.128Z,0.00
2023-05-19T11:57:56.059Z,0.00
2023-05-19T11:59:13.057Z,0.00
2023-05-19T12:00:21.494Z,0.00
2023-05-19T12:01:29.132Z,0.00
2023-05-19T12:02:37.711Z,0.00
2023-05-19T12:03:46.364Z,0.00
2023-05-19T12:04:54.183Z,0.00
2023-05-19T12:06:00.956Z,0.00
2023-05-19T12:07:09.588Z,0.00
2023-05-19T12:08:18.830Z,0.00
2023-05-19T12:09:27.287Z,0.02
2023-05-19T12:10:38.345Z,0.08
2023-05-19T12:11:45.851Z,0.02
2023-05-19T12:12:53.695Z,0.09
2023-05-19T12:14:02.173Z,0.12
2023-05-19T12:15:11.072Z,0.08
2023-05-19T12:16:21.862Z,0.10
2023-05-19T12:17:29.271Z,0.18
2023-05-19T12:18:39.231Z,0.12
2023-05-19T12:19:47.819Z,0.07
2023-05-19T12:20:56.021Z,0.07
2023-05-19T12:22:04.218Z,0.10
2023-05-19T12:23:11.037Z,0.14
2023-05-19T12:24:18.807Z,0.23
2023-05-19T12:25:26.709Z,0.15
2023-05-19T12:26:34.215Z,0.36
2023-05-19T12:27:41.262Z,0.39
2023-05-19T12:28:49.367Z,0.37
2023-05-19T12:29:59.171Z,0.37
2023-05-19T12:31:07.661Z,0.40
2023-05-19T12:32:15.528Z,0.41
2023-05-19T12:33:24.588Z,0.41
2023-05-19T12:34:32.743Z,0.47
2023-05-19T12:35:40.072Z,0.54
2023-05-19T12:36:48.084Z,0.60
2023-05-19T12:37:56.024Z,0.65
2023-05-19T12:39:03.663Z,0.63
2023-05-19T12:40:12.160Z,0.76
2023-05-19T12:41:19.810Z,0.60
2023-05-19T12:42:32.488Z,0.53
2023-05-19T12:43:39.550Z,0.59
2023-05-19T12:44:51.339Z,0.63
2023-05-19T12:45:58.376Z,0.76
2023-05-19T12:47:09.071Z,0.74
2023-05-19T12:48:21.152Z,0.92
2023-05-19T12:49:29.385Z,0.79
2023-05-19T12:50:36.865Z,0.72
2023-05-19T12:51:44.026Z,0.73
2023-05-19T12:52:54.951Z,0.89
2023-05-19T12:54:09.357Z,0.87
2023-05-19T12:55:18.004Z,0.91
2023-05-19T12:56:28.773Z,0.94
2023-05-19T12:57:40.439Z,0.95
2023-05-19T12:58:47.950Z,0.80
2023-05-19T12:59:55.554Z,0.84
2023-05-19T13:01:02.953Z,0.66
2023-05-19T13:02:10.529Z,0.79
2023-05-19T13:03:22.954Z,0.94
2023-05-19T13:04:31.974Z,1.01
2023-05-19T13:05:40.371Z,1.05
2023-05-19T13:06:50.902Z,1.05
2023-05-19T13:08:03.217Z,1.10
2023-05-19T13:09:10.374Z,0.84
2023-05-19T13:10:20.740Z,0.89
2023-05-19T13:11:32.132Z,1.15
2023-05-19T13:12:39.505Z,1.07
2023-05-19T13:13:46.956Z,1.03
2023-05-19T13:14:55.634Z,1.09
2023-05-19T13:16:02.517Z,0.94
2023-05-19T13:17:09.528Z,0.95
2023-05-19T13:18:20.881Z,1.09
2023-05-19T13:19:28.935Z,1.02
2023-05-19T13:20:37.636Z,1.00
2023-05-19T13:21:45.252Z,1.09
2023-05-19T13:22:52.769Z,1.11
2023-05-19T13:24:00.350Z,1.05
2023-05-19T13:25:08.502Z,1.04
2023-05-19T13:26:15.426Z,1.03
2023-05-19T13:27:24.135Z,1.06
2023-05-19T13:28:32.635Z,1.07
2023-05-19T13:29:39.332Z,1.04
2023-05-19T13:30:46.841Z,1.29
2023-05-19T13:31:53.419Z,1.15
2023-05-19T13:33:00.247Z,1.16
2023-05-19T13:34:10.483Z,1.48
2023-05-19T13:35:18.097Z,1.48
2023-05-19T13:36:24.974Z,1.36
2023-05-19T13:37:32.230Z,1.36
2023-05-19T13:38:39.378Z,1.39
2023-05-19T13:39:46.014Z,1.38
2023-05-19T13:40:52.832Z,1.38
2023-05-19T13:42:01.262Z,1.32
2023-05-19T13:43:09.175Z,1.43
2023-05-19T13:44:16.962Z,1.37
2023-05-19T13:45:24.078Z,1.38
2023-05-19T13:46:43.933Z,1.46
2023-05-19T13:47:51.805Z,1.46
2023-05-19T13:48:58.402Z,1.38
2023-05-19T13:50:06.038Z,1.42
2023-05-19T13:51:13.457Z,1.26
2023-05-19T13:52:21.952Z,1.42
2023-05-19T13:53:29.308Z,1.52
2023-05-19T13:54:37.332Z,1.40
2023-05-19T13:55:44.323Z,1.39
2023-05-19T13:56:51.886Z,1.47
2023-05-19T13:57:58.944Z,1.38
2023-05-19T13:59:06.449Z,1.49
2023-05-19T14:00:14.071Z,1.40
2023-05-19T14:01:21.096Z,1.43
2023-05-19T14:02:28.743Z,1.44
2023-05-19T14:03:38.182Z,1.41
2023-05-19T14:04:45.397Z,1.60
2023-05-19T14:05:53.263Z,1.57
2023-05-19T14:07:00.516Z,1.48
2023-05-19T14:08:08.149Z,1.51
2023-05-19T14:09:15.041Z,1.53
2023-05-19T14:10:22.046Z,1.53
2023-05-19T14:11:28.762Z,1.50
2023-05-19T14:12:49.463Z,1.41
2023-05-19T14:14:00.283Z,1.56
2023-05-19T14:15:09.210Z,1.56
2023-05-19T14:16:18.142Z,1.52
2023-05-19T14:17:25.086Z,1.53
2023-05-19T14:18:33.611Z,1.49
2023-05-19T14:19:40.488Z,1.60
2023-05-19T14:20:47.226Z,1.67
2023-05-19T14:21:54.532Z,1.62
2023-05-19T14:23:01.250Z,1.63
2023-05-19T14:24:08.432Z,1.52
2023-05-19T14:25:15.353Z,1.50
2023-05-19T14:26:23.365Z,1.66
2023-05-19T14:27:30.404Z,1.59
2023-05-19T14:28:37.232Z,1.58
2023-05-19T14:29:44.596Z,1.69
2023-05-19T14:30:51.821Z,1.40
2023-05-19T14:31:59.397Z,1.50
2023-05-19T14:33:06.608Z,1.51
2023-05-19T14:34:13.686Z,1.50
2023-05-19T14:35:24.169Z,1.55
2023-05-19T14:36:36.895Z,1.54
2023-05-19T14:37:44.772Z,1.59
2023-05-19T14:38:52.289Z,1.65
2023-05-19T14:40:00.111Z,1.64
2023-05-19T14:41:08.391Z,1.37
2023-05-19T14:42:16.065Z,1.59
2023-05-19T14:43:23.198Z,1.56
2023-05-19T14:44:38.721Z,1.63
2023-05-19T14:45:47.545Z,1.66
2023-05-19T14:46:56.319Z,1.57
2023-05-19T14:48:05.095Z,1.78
2023-05-19T14:49:14.433Z,1.95
2023-05-19T14:50:21.346Z,1.89
2023-05-19T14:51:29.055Z,1.92
2023-05-19T14:52:36.953Z,2.04
2023-05-19T14:53:44.016Z,2.62
2023-05-19T14:54:52.411Z,3.74
2023-05-19T14:56:00.401Z,4.59
2023-05-19T14:57:09.488Z,5.19
2023-05-19T14:58:28.459Z,5.45
2023-05-19T14:59:39.386Z,6.06
2023-05-19T15:00:46.570Z,6.60
2023-05-19T15:01:53.602Z,6.95
2023-05-19T15:03:01.258Z,6.85
2023-05-19T15:04:08.644Z,6.74
2023-05-19T15:05:17.022Z,6.96
2023-05-19T15:06:25.229Z,7.01
2023-05-19T15:07:32.149Z,7.07
2023-05-19T15:08:40.361Z,7.28
2023-05-19T15:09:48.099Z,7.60
2023-05-19T15:10:55.417Z,7.99
2023-05-19T15:12:05.131Z,8.28
2023-05-19T15:13:13.010Z,8.73
2023-05-19T15:14:19.853Z,9.20
2023-05-19T15:15:26.725Z,9.56
2023-05-19T15:16:34.008Z,9.82
2023-05-19T15:17:42.309Z,9.98
2023-05-19T15:18:50.571Z,10.31
2023-05-19T15:19:58.630Z,10.72
2023-05-19T15:21:06.201Z,11.05
2023-05-19T15:22:12.956Z,11.34
2023-05-19T15:23:20.333Z,11.00
2023-05-19T15:24:28.551Z,10.93
2023-05-19T15:25:35.376Z,11.66
2023-05-19T15:26:42.222Z,12.52
2023-05-19T15:27:50.175Z,12.96
2023-05-19T15:28:57.568Z,13.04
2023-05-19T15:30:05.835Z,13.16
2023-05-19T15:31:14.449Z,12.99